Time;durP1;ratioP1;P1;durP2;ratioP2;P2;SDS_P1;SDS_P2;PMS_P1;PMS_P2;Temp;Humidity;BMP_temperature;BMP_pressure;BME280_temperature;BME280_humidity;BME280_pressure;Samples;Min_cycle;Max_cycle;Signal;HPM_P1;HPM_P2
2023/09/12 04:00:41;;;;;;;4.60;3.67;;;21.70;76.40;;;;;;5923999;23;20391;-72
2023/09/12 04:03:07;;;;;;;5.00;4.00;;;21.70;76.40;;;;;;4919456;29;20444;-72
2023/09/12 04:05:34;;;;;;;4.33;3.93;;;21.80;76.40;;;;;;4919279;29;20484;-72
2023/09/12 04:08:01;;;;;;;4.63;4.23;;;21.80;76.00;;;;;;4919266;29;20449;-73
2023/09/12 04:10:28;;;;;;;4.70;3.87;;;21.90;76.20;;;;;;4919165;29;20452;-73
2023/09/12 04:12:54;;;;;;;4.80;3.97;;;21.90;76.10;;;;;;4919578;29;20441;-72
2023/09/12 04:15:21;;;;;;;5.10;4.60;;;22.00;75.90;;;;;;4919472;29;20448;-72
2023/09/12 04:17:49;;;;;;;5.13;3.63;;;21.90;75.40;;;;;;4919123;29;20444;-72
2023/09/12 04:20:16;;;;;;;4.27;3.97;;;21.90;75.90;;;;;;4919092;29;20508;-72
2023/09/12 04:22:43;;;;;;;3.80;3.40;;;21.90;75.60;;;;;;4918641;29;20982;-73
2023/09/12 04:25:10;;;;;;;5.23;4.03;;;21.80;76.00;;;;;;4918942;29;20491;-72
2023/09/12 04:27:37;;;;;;;4.90;4.40;;;21.80;75.60;;;;;;4919002;29;20452;-73
2023/09/12 04:30:05;;;;;;;4.30;3.83;;;21.80;75.80;;;;;;4918912;29;20471;-72
2023/09/12 04:32:32;;;;;;;5.43;4.93;;;21.50;76.80;;;;;;4918893;29;20495;-72
2023/09/12 04:35:00;;;;;;;4.20;3.80;;;21.60;76.40;;;;;;4918856;29;20453;-72
2023/09/12 04:37:27;;;;;;;4.67;4.00;;;21.60;76.70;;;;;;4918795;29;20444;-71
2023/09/12 04:39:53;;;;;;;4.77;3.90;;;21.70;76.30;;;;;;4918454;29;20948;-72
2023/09/12 04:42:20;;;;;;;5.07;4.17;;;21.80;76.20;;;;;;4918272;29;20982;-73
2023/09/12 04:44:47;;;;;;;4.27;3.83;;;21.70;76.20;;;;;;4918639;29;20623;-73
2023/09/12 04:47:14;;;;;;;5.23;4.27;;;21.70;76.20;;;;;;4918599;29;20448;-72
2023/09/12 04:49:40;;;;;;;4.50;4.10;;;21.70;76.10;;;;;;4918576;29;20449;-72
2023/09/12 04:52:08;;;;;;;6.57;4.47;;;21.60;76.40;;;;;;4918456;29;20471;-72
2023/09/12 04:54:36;;;;;;;6.20;4.43;;;21.60;76.30;;;;;;4918254;29;20448;-72
2023/09/12 04:57:03;;;;;;;4.57;4.17;;;21.20;77.70;;;;;;4918371;29;20457;-72
2023/09/12 04:59:29;;;;;;;5.63;4.00;;;21.20;78.00;;;;;;4918373;29;20929;-72
2023/09/12 05:01:56;;;;;;;4.97;4.57;;;21.10;78.00;;;;;;4917979;29;20481;-72
2023/09/12 05:04:23;;;;;;;4.70;4.30;;;21.20;77.80;;;;;;4918166;29;20495;-72
2023/09/12 05:06:49;;;;;;;5.43;4.23;;;21.40;77.30;;;;;;4918238;29;20456;-71
2023/09/12 05:09:18;;;;;;;6.40;4.47;;;21.50;77.00;;;;;;4918218;29;20480;-72
2023/09/12 05:11:45;;;;;;;4.03;3.63;;;21.50;76.80;;;;;;4918083;29;20524;-71
2023/09/12 05:14:11;;;;;;;5.10;4.60;;;21.60;76.50;;;;;;4918105;29;20531;-72
2023/09/12 05:16:38;;;;;;;5.30;4.23;;;21.50;76.80;;;;;;4917740;29;20939;-71
2023/09/12 05:19:05;;;;;;;6.23;4.10;;;21.40;76.60;;;;;;4917999;29;20819;-70
2023/09/12 05:21:32;;;;;;;6.10;4.53;;;21.40;76.80;;;;;;4917895;29;20538;-72
2023/09/12 05:23:59;;;;;;;4.63;4.10;;;21.50;76.80;;;;;;4917822;29;20452;-72
2023/09/12 05:26:27;;;;;;;4.93;3.80;;;21.60;76.90;;;;;;4917903;29;20448;-73
2023/09/12 05:28:53;;;;;;;6.80;4.63;;;21.80;76.00;;;;;;4917871;29;20453;-72
2023/09/12 05:31:20;;;;;;;5.83;4.23;;;21.90;75.70;;;;;;4917690;29;20465;-72
2023/09/12 05:33:47;;;;;;;4.70;4.30;;;22.10;75.50;;;;;;4917729;29;20911;-72
2023/09/12 05:36:13;;;;;;;3.93;3.63;;;22.30;75.40;;;;;;4917700;29;20471;-72
2023/09/12 05:38:40;;;;;;;5.90;4.33;;;22.40;74.80;;;;;;4917626;29;20454;-72
2023/09/12 05:41:07;;;;;;;4.70;4.30;;;22.50;74.80;;;;;;4917414;29;20465;-72
2023/09/12 05:43:35;;;;;;;5.37;3.40;;;22.50;74.50;;;;;;4917540;29;20444;-73
2023/09/12 05:46:02;;;;;;;4.90;3.77;;;22.70;74.60;;;;;;4917098;29;21005;-72
2023/09/12 05:48:29;;;;;;;4.57;4.17;;;22.90;73.20;;;;;;4917808;29;20887;-72
2023/09/12 05:50:56;;;;;;;4.47;4.10;;;22.90;73.60;;;;;;4917457;29;20523;-72
2023/09/12 05:53:22;;;;;;;4.83;4.27;;;23.10;73.30;;;;;;4917385;29;20530;-71
2023/09/12 05:55:49;;;;;;;4.83;4.20;;;23.40;72.60;;;;;;4917556;29;20484;-71
2023/09/12 05:58:16;;;;;;;5.27;3.90;;;23.80;71.60;;;;;;4917667;29;20476;-72
2023/09/12 06:00:44;;;;;;;4.90;4.00;;;24.20;70.70;;;;;;4917712;29;20537;-73
2023/09/12 06:03:10;;;;;;;4.20;3.80;;;24.60;69.10;;;;;;4917631;29;20433;-72
2023/09/12 06:05:37;;;;;;;5.13;4.07;;;24.60;68.70;;;;;;4917271;29;20496;-73
2023/09/12 06:08:04;;;;;;;4.70;4.20;;;24.50;69.00;;;;;;4917109;29;20452;-72
2023/09/12 06:10:31;;;;;;;4.50;3.73;;;24.50;69.70;;;;;;4917483;29;20480;-72
2023/09/12 06:12:58;;;;;;;4.83;4.00;;;24.80;69.50;;;;;;4917559;29;20449;-72
2023/09/12 06:15:24;;;;;;;4.00;3.60;;;25.10;68.40;;;;;;4917799;29;20523;-72
2023/09/12 06:17:53;;;;;;;4.10;3.70;;;25.20;68.00;;;;;;4917840;29;20445;-72
2023/09/12 06:20:21;;;;;;;4.13;3.73;;;25.10;67.80;;;;;;4917582;29;20816;-73
2023/09/12 06:22:49;;;;;;;4.73;4.23;;;25.10;67.80;;;;;;4917580;29;20468;-73
2023/09/12 06:25:16;;;;;;;4.73;4.33;;;25.00;68.40;;;;;;4917405;29;20491;-74
2023/09/12 06:27:42;;;;;;;5.20;3.50;;;25.00;68.40;;;;;;4917559;29;20581;-74
2023/09/12 06:30:10;;;;;;;5.60;3.63;;;25.10;68.30;;;;;;4916800;29;20819;-74
2023/09/12 06:32:38;;;;;;;4.47;4.07;;;25.30;67.80;;;;;;4917380;29;20468;-76
2023/09/12 06:35:07;;;;;;;3.90;3.60;;;25.20;66.90;;;;;;4917020;29;20445;-75
2023/09/12 06:37:34;;;;;;;4.10;3.63;;;24.90;68.30;;;;;;4916945;29;20452;-74
2023/09/12 06:40:01;;;;;;;4.33;3.93;;;25.00;67.90;;;;;;4916891;29;20445;-75
2023/09/12 06:42:27;;;;;;;3.70;3.40;;;25.10;67.60;;;;;;4916696;29;20473;-75
2023/09/12 06:44:54;;;;;;;3.83;3.30;;;25.20;67.80;;;;;;4916792;29;20480;-75
2023/09/12 06:47:21;;;;;;;4.40;4.00;;;25.20;67.90;;;;;;4916606;29;20961;-75
2023/09/12 06:49:47;;;;;;;6.07;4.30;;;25.00;67.90;;;;;;4916825;29;20968;-75
2023/09/12 06:52:15;;;;;;;5.87;3.90;;;24.90;68.60;;;;;;4916739;29;20476;-75
2023/09/12 06:54:43;;;;;;;4.20;3.90;;;24.90;68.70;;;;;;4916812;29;20444;-75
2023/09/12 06:57:09;;;;;;;5.40;3.57;;;24.70;69.00;;;;;;4916783;29;20504;-75
2023/09/12 06:59:36;;;;;;;3.90;3.30;;;24.60;69.50;;;;;;4916883;29;20460;-74
2023/09/12 07:02:03;;;;;;;4.30;3.90;;;24.70;69.30;;;;;;4917485;29;20551;-78
2023/09/12 07:04:30;;;;;;;4.40;4.00;;;24.90;69.30;;;;;;4916706;29;20950;-78
2023/09/12 07:06:57;;;;;;;4.60;4.20;;;25.00;69.30;;;;;;4916933;29;20449;-78
2023/09/12 07:09:26;;;;;;;4.10;3.70;;;25.20;69.30;;;;;;4916969;29;20449;-78
2023/09/12 07:11:53;;;;;;;4.50;4.10;;;25.30;68.40;;;;;;4916879;29;20475;-78
2023/09/12 07:14:20;;;;;;;4.37;3.97;;;25.40;68.20;;;;;;4917056;29;20487;-78
2023/09/12 07:16:47;;;;;;;4.00;3.70;;;25.50;68.40;;;;;;4917162;29;20484;-78
2023/09/12 07:19:13;;;;;;;3.43;3.13;;;25.70;67.90;;;;;;4919993;29;20457;-78
2023/09/12 07:21:40;;;;;;;4.27;3.87;;;25.80;68.00;;;;;;4920487;29;20473;-77
2023/09/12 07:24:07;;;;;;;3.70;3.40;;;26.20;68.10;;;;;;4920625;29;20448;-78
2023/09/12 07:26:35;;;;;;;4.10;3.80;;;26.50;67.60;;;;;;4920474;29;20492;-78
2023/09/12 07:29:04;;;;;;;4.20;3.90;;;26.90;65.60;;;;;;4920171;29;20449;-78
2023/09/12 07:31:31;;;;;;;3.57;3.17;;;27.30;64.50;;;;;;4920041;29;20551;-78
2023/09/12 07:33:57;;;;;;;3.67;3.37;;;27.60;63.60;;;;;;4920414;29;20452;-78
2023/09/12 07:36:24;;;;;;;4.03;3.73;;;28.00;63.20;;;;;;4919576;29;20939;-78
2023/09/12 07:38:51;;;;;;;4.47;4.07;;;28.10;62.70;;;;;;4919963;29;20456;-78
2023/09/12 07:41:18;;;;;;;5.23;3.73;;;28.40;61.80;;;;;;4920285;29;20654;-78
2023/09/12 07:43:46;;;;;;;3.70;3.40;;;28.70;61.90;;;;;;4920137;29;20453;-77
2023/09/12 07:46:13;;;;;;;5.73;3.70;;;29.00;60.40;;;;;;4920243;29;20491;-78
2023/09/12 07:48:40;;;;;;;4.67;3.47;;;28.80;61.20;;;;;;4919732;29;20448;-78
2023/09/12 07:51:14;;;;;;;4.83;4.40;;;28.70;63.10;;;;;;4919623;29;20475;-77
2023/09/12 07:53:40;;;;;;;4.43;4.13;;;28.50;63.00;;;;;;4919694;29;20493;-77
2023/09/12 07:56:08;;;;;;;4.20;3.87;;;28.70;63.30;;;;;;4919554;29;20451;-77
2023/09/12 07:58:35;;;;;;;4.50;3.87;;;28.70;63.40;;;;;;4919880;29;20448;-77
2023/09/12 08:01:07;;;;;;;4.27;3.87;;;28.50;63.20;;;;;;4919878;29;20480;-77
2023/09/12 08:03:34;;;;;;;3.73;3.43;;;28.20;63.40;;;;;;4919916;29;20939;-77
2023/09/12 08:06:01;;;;;;;5.83;4.20;;;28.00;64.70;;;;;;4919677;29;21036;-77
2023/09/12 08:08:28;;;;;;;4.37;3.60;;;27.90;65.70;;;;;;4920141;29;20457;-77
2023/09/12 08:10:54;;;;;;;3.43;3.13;;;28.00;65.50;;;;;;4919406;29;20846;-77
2023/09/12 08:13:22;;;;;;;4.77;4.37;;;27.80;66.00;;;;;;4919152;29;20448;-77
2023/09/12 08:15:49;;;;;;;4.50;4.20;;;27.60;64.60;;;;;;4920160;29;20453;-77
2023/09/12 08:18:17;;;;;;;4.87;4.47;;;27.40;66.40;;;;;;4919267;29;20453;-76
2023/09/12 08:20:44;;;;;;;4.20;3.80;;;27.20;66.20;;;;;;4919340;29;20830;-77
2023/09/12 08:23:11;;;;;;;6.70;4.40;;;27.00;66.70;;;;;;4919114;29;20480;-77
2023/09/12 08:25:37;;;;;;;3.93;3.63;;;26.90;66.20;;;;;;4919039;29;20488;-76
2023/09/12 08:28:04;;;;;;;4.00;3.60;;;26.80;67.70;;;;;;4919027;29;20504;-77
2023/09/12 08:30:32;;;;;;;4.13;3.80;;;26.60;67.50;;;;;;4918587;29;20500;-77
2023/09/12 08:32:59;;;;;;;4.17;3.83;;;26.40;68.10;;;;;;4918946;29;20516;-76
2023/09/12 08:35:27;;;;;;;5.00;4.60;;;26.40;69.50;;;;;;4919060;29;20441;-77
2023/09/12 08:37:54;;;;;;;4.40;3.87;;;26.30;68.90;;;;;;4918823;29;20448;-76
2023/09/12 08:40:20;;;;;;;5.17;4.67;;;26.50;68.70;;;;;;4918835;29;20457;-77
2023/09/12 08:42:50;;;;;;;4.17;3.80;;;26.80;68.60;;;;;;4919109;29;20456;-77
2023/09/12 08:45:18;;;;;;;4.40;4.10;;;27.30;68.70;;;;;;4919175;29;20945;-77
2023/09/12 08:47:46;;;;;;;3.97;3.57;;;27.60;67.00;;;;;;4918830;29;20457;-76
2023/09/12 08:50:16;;;;;;;4.57;3.90;;;27.90;66.60;;;;;;4918812;29;20449;-77
2023/09/12 08:52:46;;;;;;;4.47;4.17;;;27.70;67.50;;;;;;4918555;29;20473;-78
2023/09/12 08:55:14;;;;;;;3.90;3.60;;;27.60;66.50;;;;;;4918563;29;20488;-77
2023/09/12 08:57:43;;;;;;;4.10;3.80;;;27.50;66.90;;;;;;4919251;29;20456;-77
2023/09/12 09:00:12;;;;;;;4.80;4.40;;;27.30;67.60;;;;;;4918541;29;20965;-76
2023/09/12 09:02:40;;;;;;;4.53;4.13;;;27.50;67.20;;;;;;4919193;29;20520;-77
2023/09/12 09:05:08;;;;;;;4.30;3.90;;;27.60;66.90;;;;;;4918636;29;20480;-76
2023/09/12 09:07:37;;;;;;;4.10;3.80;;;27.30;67.50;;;;;;4918516;29;20485;-77
2023/09/12 09:10:07;;;;;;;4.60;4.20;;;27.40;68.30;;;;;;4918163;29;20885;-76
2023/09/12 09:12:34;;;;;;;3.90;3.60;;;27.20;68.10;;;;;;4918456;29;20559;-76
2023/09/12 09:15:21;;;;;;;4.40;4.00;;;27.20;69.40;;;;;;4918467;29;20456;-77
2023/09/12 09:17:48;;;;;;;5.00;4.60;;;27.30;68.50;;;;;;4918339;29;20429;-75
2023/09/12 09:20:23;;;;;;;4.70;4.30;;;27.70;68.80;;;;;;4917668;29;20453;-75
2023/09/12 09:22:58;;;;;;;4.13;3.73;;;27.90;67.60;;;;;;4918106;29;20433;-75
2023/09/12 09:25:26;;;;;;;4.33;3.93;;;28.00;66.70;;;;;;4918129;29;20472;-75
2023/09/12 09:27:52;;;;;;;4.23;3.93;;;28.00;66.80;;;;;;4917918;29;20445;-75
2023/09/12 09:30:20;;;;;;;3.97;3.67;;;28.20;67.00;;;;;;4917843;29;20965;-75
2023/09/12 09:32:47;;;;;;;4.50;4.10;;;28.30;66.00;;;;;;4918074;29;20459;-75
2023/09/12 09:35:14;;;;;;;4.27;3.90;;;28.30;66.30;;;;;;4917646;29;20452;-75
2023/09/12 09:37:42;;;;;;;5.23;4.73;;;28.30;65.30;;;;;;4917647;29;20475;-75
2023/09/12 09:40:09;;;;;;;4.53;4.23;;;28.20;66.60;;;;;;4917786;29;20861;-76
2023/09/12 09:42:38;;;;;;;3.90;3.60;;;28.30;66.60;;;;;;4916815;29;20890;-76
2023/09/12 09:45:06;;;;;;;4.60;4.20;;;28.40;66.20;;;;;;4917606;29;20464;-76
2023/09/12 09:47:33;;;;;;;4.13;3.73;;;28.50;65.00;;;;;;4917494;29;20444;-77
2023/09/12 09:50:00;;;;;;;3.97;3.67;;;28.70;64.50;;;;;;4918344;29;20453;-75
2023/09/12 09:52:27;;;;;;;4.07;3.67;;;28.80;63.80;;;;;;4917518;29;20552;-76
2023/09/12 09:54:54;;;;;;;4.50;4.10;;;28.80;63.80;;;;;;4917553;29;20480;-76
2023/09/12 09:57:21;;;;;;;4.07;3.67;;;28.90;64.10;;;;;;4917121;29;20809;-76
2023/09/12 09:59:51;;;;;;;3.47;3.17;;;29.00;63.20;;;;;;4917574;29;20476;-77
2023/09/12 10:02:22;;;;;;;3.80;3.40;;;29.00;61.00;;;;;;4917089;29;20495;-77
2023/09/12 10:04:52;;;;;;;3.83;3.43;;;29.20;61.20;;;;;;4917418;29;20528;-77
2023/09/12 10:07:19;;;;;;;4.30;3.90;;;29.30;61.30;;;;;;4917730;29;20887;-77
2023/09/12 10:09:46;;;;;;;4.13;3.73;;;29.40;61.10;;;;;;4917498;29;20460;-77
2023/09/12 10:12:13;;;;;;;4.03;3.67;;;29.50;60.90;;;;;;4917671;29;20468;-77
2023/09/12 10:14:41;;;;;;;4.03;3.73;;;29.70;60.90;;;;;;4918166;29;20448;-76
2023/09/12 10:17:13;;;;;;;5.30;4.10;;;29.50;61.30;;;;;;4917276;29;20859;-77
2023/09/12 10:19:45;;;;;;;4.30;3.90;;;29.40;61.80;;;;;;4917432;29;20437;-76
2023/09/12 10:22:21;;;;;;;3.70;3.37;;;29.40;62.10;;;;;;4917268;29;20473;-77
2023/09/12 10:24:50;;;;;;;4.10;3.70;;;29.50;60.30;;;;;;4917319;29;20926;-77
2023/09/12 10:27:19;;;;;;;4.73;3.63;;;29.50;61.50;;;;;;4917163;29;20484;-77
2023/09/12 10:29:48;;;;;;;3.40;3.10;;;29.80;61.10;;;;;;4917053;29;20453;-77
2023/09/12 10:32:19;;;;;;;5.07;3.53;;;29.70;60.20;;;;;;4917042;29;20469;-77
2023/09/12 10:34:49;;;;;;;4.00;3.50;;;30.00;60.00;;;;;;4917111;29;20873;-77
2023/09/12 10:37:17;;;;;;;4.00;3.60;;;29.90;59.90;;;;;;4916630;29;21009;-74
2023/09/12 10:39:44;;;;;;;5.03;3.53;;;29.80;60.50;;;;;;4916956;29;20449;-74
2023/09/12 10:42:12;;;;;;;3.80;3.50;;;29.70;60.30;;;;;;4916816;29;20528;-74
2023/09/12 10:44:39;;;;;;;4.13;3.27;;;29.80;59.10;;;;;;4916687;29;21003;-74
2023/09/12 10:47:07;;;;;;;4.60;3.13;;;29.70;57.90;;;;;;4916845;29;20488;-74
2023/09/12 10:49:35;;;;;;;3.20;2.90;;;29.80;56.20;;;;;;4916618;29;20836;-74
2023/09/12 10:52:01;;;;;;;3.93;3.07;;;29.80;56.20;;;;;;4916553;29;20845;-74
2023/09/12 10:54:38;;;;;;;3.73;3.27;;;29.80;57.00;;;;;;4920582;29;20459;-74
2023/09/12 10:57:05;;;;;;;3.50;3.20;;;29.80;56.30;;;;;;4920777;29;20464;-75
2023/09/12 10:59:35;;;;;;;3.87;2.87;;;29.80;55.00;;;;;;4920623;29;20456;-75
2023/09/12 11:02:30;;;;;;;3.03;2.70;;;29.90;56.50;;;;;;4920167;29;20535;-75
2023/09/12 11:04:59;;;;;;;3.10;2.77;;;30.00;55.90;;;;;;4920557;29;20461;-75
2023/09/12 11:07:33;;;;;;;3.50;3.10;;;30.00;55.70;;;;;;4920397;29;20496;-76
2023/09/12 11:10:20;;;;;;;3.40;3.10;;;30.20;56.00;;;;;;4920083;29;20482;-76
2023/09/12 11:12:49;;;;;;;3.73;2.83;;;30.30;56.00;;;;;;4920711;29;20459;-75
2023/09/12 11:15:17;;;;;;;4.83;3.20;;;30.50;55.80;;;;;;4920628;29;20487;-75
2023/09/12 11:17:44;;;;;;;4.53;3.40;;;30.60;54.20;;;;;;4920961;29;20453;-76
2023/09/12 11:20:14;;;;;;;3.43;3.10;;;30.70;55.70;;;;;;4921291;29;20478;-75
2023/09/12 11:22:42;;;;;;;3.27;3.00;;;30.60;54.60;;;;;;4920878;29;20476;-76
2023/09/12 11:25:19;;;;;;;3.47;3.00;;;30.50;53.00;;;;;;4919857;29;20964;-75
2023/09/12 11:28:03;;;;;;;2.90;2.70;;;30.80;52.90;;;;;;4920017;29;20488;-75
2023/09/12 11:30:31;;;;;;;2.90;2.70;;;30.60;52.70;;;;;;4920082;29;20561;-76
2023/09/12 11:32:58;;;;;;;4.37;3.00;;;30.60;53.80;;;;;;4919709;29;20483;-75
2023/09/12 11:35:27;;;;;;;3.30;3.00;;;30.70;53.40;;;;;;4919946;29;20449;-76
2023/09/12 11:37:56;;;;;;;3.40;3.10;;;30.80;52.70;;;;;;4919903;29;20448;-76
2023/09/12 11:40:25;;;;;;;3.50;3.13;;;31.00;51.80;;;;;;4919860;29;20444;-76
2023/09/12 11:42:52;;;;;;;3.07;2.77;;;31.20;51.60;;;;;;4919867;29;20445;-75
2023/09/12 11:45:21;;;;;;;3.67;2.87;;;31.30;51.60;;;;;;4919779;29;20593;-75
2023/09/12 11:47:48;;;;;;;3.00;2.70;;;31.50;52.10;;;;;;4919660;29;20490;-76
2023/09/12 11:50:29;;;;;;;3.03;2.73;;;31.90;50.50;;;;;;4919669;29;20456;-76
2023/09/12 11:53:01;;;;;;;3.00;2.70;;;32.10;50.60;;;;;;4919586;29;20480;-76
2023/09/12 11:55:30;;;;;;;4.00;2.80;;;32.10;49.20;;;;;;4919571;29;20904;-76
2023/09/12 11:57:57;;;;;;;2.63;2.40;;;32.00;50.60;;;;;;4919560;29;20456;-76
2023/09/12 12:00:26;;;;;;;3.33;2.67;;;32.20;50.40;;;;;;4919386;29;20448;-76
2023/09/12 12:02:53;;;;;;;3.23;2.77;;;32.30;49.40;;;;;;4919072;29;20955;-76
2023/09/12 12:05:20;;;;;;;3.43;3.13;;;32.50;51.60;;;;;;4918590;29;20460;-75
2023/09/12 12:07:48;;;;;;;3.50;3.20;;;32.60;50.90;;;;;;4919309;29;20488;-76
2023/09/12 12:10:15;;;;;;;3.83;3.00;;;32.50;50.60;;;;;;4919352;29;20477;-76
2023/09/12 12:12:44;;;;;;;2.33;2.13;;;32.30;51.10;;;;;;4919131;29;20512;-76
2023/09/12 12:15:11;;;;;;;3.57;2.73;;;32.30;48.00;;;;;;4919235;29;20488;-76
2023/09/12 12:17:40;;;;;;;3.37;3.07;;;32.30;47.90;;;;;;4919198;29;20531;-76
2023/09/12 12:20:10;;;;;;;2.87;2.67;;;32.30;47.80;;;;;;4919108;29;20455;-76
2023/09/12 12:22:37;;;;;;;2.70;2.50;;;32.40;47.70;;;;;;4918772;29;20966;-76
2023/09/12 12:25:09;;;;;;;2.87;2.60;;;32.60;48.10;;;;;;4918740;29;20931;-75
2023/09/12 12:27:37;;;;;;;3.30;3.00;;;32.80;48.80;;;;;;4919048;29;20504;-75
2023/09/12 12:30:06;;;;;;;3.30;3.00;;;32.60;48.30;;;;;;4919061;29;20476;-75
2023/09/12 12:32:33;;;;;;;3.10;2.47;;;32.70;47.80;;;;;;4918563;29;20850;-75
2023/09/12 12:34:59;;;;;;;2.70;2.50;;;32.50;48.00;;;;;;4918913;29;20461;-74
2023/09/12 12:37:31;;;;;;;2.70;2.43;;;32.50;46.90;;;;;;4918971;29;20444;-74
2023/09/12 12:39:58;;;;;;;2.70;2.50;;;32.40;47.50;;;;;;4918640;29;20859;-75
2023/09/12 12:42:26;;;;;;;2.60;2.40;;;32.70;47.80;;;;;;4918894;29;20577;-74
2023/09/12 12:44:55;;;;;;;2.97;2.23;;;32.90;45.90;;;;;;4918804;29;20540;-74
2023/09/12 12:47:23;;;;;;;3.60;3.07;;;33.10;44.60;;;;;;4918793;29;20495;-75
2023/09/12 12:49:52;;;;;;;2.83;2.57;;;33.40;44.40;;;;;;4918811;29;20888;-75
2023/09/12 12:52:23;;;;;;;2.87;2.30;;;33.70;43.10;;;;;;4918682;29;20547;-75
2023/09/12 12:54:52;;;;;;;2.20;2.00;;;34.20;44.50;;;;;;4918612;29;20475;-75
2023/09/12 12:57:20;;;;;;;2.70;2.50;;;34.50;43.00;;;;;;4918450;29;20480;-75
2023/09/12 12:59:48;;;;;;;2.70;2.50;;;34.20;43.70;;;;;;4918490;29;20473;-75
2023/09/12 13:02:15;;;;;;;2.30;2.10;;;34.20;42.60;;;;;;4918064;29;20484;-75
2023/09/12 13:04:42;;;;;;;2.73;2.53;;;34.20;42.30;;;;;;4918424;29;20459;-74
2023/09/12 13:07:10;;;;;;;3.77;2.67;;;34.10;43.70;;;;;;4918196;29;21020;-75
2023/09/12 13:09:37;;;;;;;2.60;2.40;;;34.30;42.80;;;;;;4918240;29;20456;-75
2023/09/12 13:12:06;;;;;;;2.67;2.47;;;34.50;43.60;;;;;;4918155;29;20472;-75
2023/09/12 13:14:33;;;;;;;2.93;2.40;;;34.70;41.80;;;;;;4918189;29;20966;-75
2023/09/12 13:17:02;;;;;;;2.20;2.00;;;34.90;41.70;;;;;;4918102;29;20449;-75
2023/09/12 13:19:29;;;;;;;2.87;2.57;;;34.90;41.90;;;;;;4917817;29;20491;-75
2023/09/12 13:21:56;;;;;;;2.50;2.07;;;34.70;43.20;;;;;;4918051;29;20468;-75
2023/09/12 13:24:23;;;;;;;3.20;2.30;;;35.00;41.40;;;;;;4918031;29;20448;-75
2023/09/12 13:26:49;;;;;;;2.73;2.53;;;35.20;41.80;;;;;;4917908;29;20491;-75
2023/09/12 13:29:16;;;;;;;3.40;2.87;;;35.10;42.90;;;;;;4917650;29;20807;-75
2023/09/12 13:31:43;;;;;;;3.67;2.90;;;35.40;44.10;;;;;;4917819;29;20494;-75
2023/09/12 13:34:11;;;;;;;2.73;2.53;;;35.60;43.90;;;;;;4917837;29;20523;-76
2023/09/12 13:36:37;;;;;;;3.53;3.23;;;35.50;45.30;;;;;;4917787;29;20451;-75
2023/09/12 13:39:06;;;;;;;3.40;2.60;;;35.20;45.20;;;;;;4917755;29;20445;-74
2023/09/12 13:41:33;;;;;;;3.27;3.00;;;34.70;45.40;;;;;;4917730;29;20484;-75
2023/09/12 13:43:59;;;;;;;3.60;3.03;;;34.30;46.60;;;;;;4917589;29;20459;-75
2023/09/12 13:46:26;;;;;;;3.20;2.90;;;34.10;47.60;;;;;;4917591;29;20453;-75
2023/09/12 13:48:53;;;;;;;3.53;3.10;;;33.90;47.70;;;;;;4917599;29;20456;-75
2023/09/12 13:51:21;;;;;;;3.37;3.07;;;33.90;47.70;;;;;;4917418;29;20469;-75
2023/09/12 13:53:47;;;;;;;4.10;2.93;;;34.10;47.00;;;;;;4917484;29;20448;-75
2023/09/12 13:56:14;;;;;;;3.57;3.10;;;34.30;46.70;;;;;;4917492;29;20491;-75
2023/09/12 13:58:40;;;;;;;4.07;2.73;;;34.70;46.10;;;;;;4917421;29;20448;-75
2023/09/12 14:01:07;;;;;;;4.47;3.40;;;35.00;46.10;;;;;;4917170;29;20484;-75
2023/09/12 14:03:34;;;;;;;5.43;3.17;;;35.30;44.90;;;;;;4917576;29;20424;-74
2023/09/12 14:06:00;;;;;;;3.00;2.70;;;35.50;44.40;;;;;;4917477;29;20818;-75
2023/09/12 14:08:28;;;;;;;4.90;3.00;;;35.70;44.50;;;;;;4917325;29;20483;-74
2023/09/12 14:10:55;;;;;;;3.83;2.80;;;35.70;44.40;;;;;;4917394;29;20480;-75
2023/09/12 14:13:22;;;;;;;4.13;2.80;;;35.50;45.10;;;;;;4917645;29;20451;-75
2023/09/12 14:15:49;;;;;;;3.30;3.00;;;35.60;44.80;;;;;;4917286;29;20448;-75
2023/09/12 14:18:17;;;;;;;4.20;3.43;;;35.30;45.10;;;;;;4917353;29;20541;-74
2023/09/12 14:20:43;;;;;;;3.40;3.10;;;35.20;45.00;;;;;;4917051;29;20472;-75
2023/09/12 14:23:10;;;;;;;3.67;3.30;;;34.90;46.50;;;;;;4917119;29;20500;-75
2023/09/12 14:25:38;;;;;;;3.50;3.10;;;34.50;47.40;;;;;;4917242;29;20452;-75
2023/09/12 14:28:06;;;;;;;3.80;3.33;;;34.20;47.70;;;;;;4916895;29;20487;-75
2023/09/12 14:30:35;;;;;;;6.10;3.60;;;33.90;48.50;;;;;;4917143;29;21057;-75
2023/09/12 14:33:02;;;;;;;3.77;3.10;;;33.70;49.40;;;;;;4917266;29;20489;-75
2023/09/12 14:35:28;;;;;;;3.67;3.30;;;33.50;49.40;;;;;;4916828;29;20907;-75
2023/09/12 14:37:55;;;;;;;4.87;3.63;;;33.20;50.40;;;;;;4917061;29;20449;-75
2023/09/12 14:40:22;;;;;;;3.13;2.83;;;33.10;51.50;;;;;;4917214;29;20449;-75
2023/09/12 14:42:50;;;;;;;3.67;3.37;;;33.00;51.40;;;;;;4917265;29;20460;-75
2023/09/12 14:45:18;;;;;;;3.37;3.07;;;32.80;51.50;;;;;;4917626;29;20452;-75
2023/09/12 14:47:44;;;;;;;3.40;3.10;;;32.70;51.70;;;;;;4916836;29;20489;-76
2023/09/12 14:50:11;;;;;;;3.63;3.33;;;32.50;51.60;;;;;;4916908;29;20460;-75
2023/09/12 14:52:38;;;;;;;4.20;3.50;;;32.50;51.70;;;;;;4916795;29;20484;-75
2023/09/12 14:55:05;;;;;;;5.23;3.43;;;32.40;51.90;;;;;;4916970;29;20455;-75
2023/09/12 14:57:32;;;;;;;4.70;3.03;;;32.40;52.00;;;;;;4916917;29;20445;-75
2023/09/12 15:00:01;;;;;;;3.20;2.90;;;32.40;53.40;;;;;;4916776;29;20463;-75
2023/09/12 15:02:31;;;;;;;3.20;2.90;;;32.40;52.10;;;;;;4916503;29;20515;-75
2023/09/12 15:04:58;;;;;;;4.00;3.60;;;32.60;53.00;;;;;;4916814;29;20893;-74
2023/09/12 15:07:25;;;;;;;3.10;2.80;;;32.70;51.50;;;;;;4916716;29;20485;-75
2023/09/12 15:09:52;;;;;;;3.80;3.00;;;32.80;51.30;;;;;;4916942;29;20495;-75
2023/09/12 15:12:18;;;;;;;4.50;2.70;;;32.90;51.70;;;;;;4916605;29;20465;-75
2023/09/12 15:14:45;;;;;;;4.13;3.30;;;33.20;51.50;;;;;;4916821;29;20487;-75
2023/09/12 15:17:13;;;;;;;4.40;3.10;;;33.90;50.00;;;;;;4916576;29;20957;-75
2023/09/12 15:19:40;;;;;;;3.70;3.40;;;34.40;49.00;;;;;;4916615;29;20444;-74
2023/09/12 15:22:06;;;;;;;3.83;3.43;;;34.50;49.30;;;;;;4916536;29;20471;-75
2023/09/12 15:24:33;;;;;;;4.13;3.30;;;34.10;49.10;;;;;;4916623;29;20456;-75
2023/09/12 15:27:00;;;;;;;3.70;3.13;;;33.80;49.70;;;;;;4916668;29;20539;-75
2023/09/12 15:29:27;;;;;;;4.20;2.97;;;33.30;50.80;;;;;;4916622;29;20821;-74
2023/09/12 15:31:54;;;;;;;3.03;2.73;;;33.00;51.50;;;;;;4916406;29;20982;-75
2023/09/12 15:34:23;;;;;;;4.50;3.37;;;32.80;51.50;;;;;;4916529;29;20515;-74
2023/09/12 15:36:49;;;;;;;4.97;3.40;;;32.40;52.20;;;;;;4916361;29;20456;-75
2023/09/12 15:39:16;;;;;;;3.73;2.93;;;32.10;53.30;;;;;;4916388;29;20817;-75
2023/09/12 15:41:43;;;;;;;3.97;3.67;;;31.90;53.60;;;;;;4919835;29;20847;-75
2023/09/12 15:44:09;;;;;;;3.53;3.10;;;31.70;53.70;;;;;;4919882;29;20459;-75
2023/09/12 15:46:36;;;;;;;4.57;3.77;;;31.50;54.00;;;;;;4919742;29;20444;-74
2023/09/12 15:49:04;;;;;;;3.17;2.87;;;31.50;54.00;;;;;;4919789;29;20560;-75
2023/09/12 15:51:33;;;;;;;3.70;3.23;;;31.50;54.60;;;;;;4919715;29;20563;-75
2023/09/12 15:54:00;;;;;;;3.60;3.30;;;31.50;54.90;;;;;;4919756;29;20471;-75
2023/09/12 15:56:26;;;;;;;4.60;3.80;;;31.40;54.40;;;;;;4920345;29;20452;-75
2023/09/12 15:58:55;;;;;;;4.43;3.67;;;31.30;54.90;;;;;;4920083;29;20550;-75
2023/09/12 16:01:22;;;;;;;4.93;3.50;;;31.20;54.80;;;;;;4920726;29;20540;-75
2023/09/12 16:03:48;;;;;;;4.53;3.37;;;31.20;54.90;;;;;;4920618;29;20453;-74
2023/09/12 16:06:16;;;;;;;3.73;3.07;;;31.20;55.00;;;;;;4920642;29;20977;-75
2023/09/12 16:08:44;;;;;;;4.13;3.70;;;31.20;54.80;;;;;;4920490;29;20859;-75
2023/09/12 16:11:10;;;;;;;4.20;3.50;;;31.20;54.80;;;;;;4919676;29;20881;-75
2023/09/12 16:13:40;;;;;;;3.40;3.10;;;31.00;55.10;;;;;;4920516;29;20457;-74
2023/09/12 16:16:06;;;;;;;4.27;3.87;;;30.90;55.60;;;;;;4919322;29;20453;-74
2023/09/12 16:18:34;;;;;;;5.90;3.43;;;30.90;55.30;;;;;;4919972;29;20445;-74
2023/09/12 16:21:01;;;;;;;4.40;3.20;;;31.00;55.20;;;;;;4920176;29;20528;-74
2023/09/12 16:23:31;;;;;;;4.63;3.20;;;31.00;54.80;;;;;;4919629;29;20453;-74
2023/09/12 16:25:59;;;;;;;3.57;3.03;;;31.00;54.80;;;;;;4919397;29;20539;-74
2023/09/12 16:28:26;;;;;;;3.60;3.30;;;30.90;54.70;;;;;;4919751;29;20485;-74
2023/09/12 16:30:55;;;;;;;4.57;3.40;;;30.90;54.90;;;;;;4919378;29;20480;-74
2023/09/12 16:33:22;;;;;;;3.47;3.17;;;31.00;54.90;;;;;;4919201;29;20484;-74
2023/09/12 16:35:49;;;;;;;5.23;3.60;;;31.00;54.60;;;;;;4919346;29;20472;-74
2023/09/12 16:38:16;;;;;;;5.60;3.30;;;31.00;54.90;;;;;;4919200;29;20569;-74
2023/09/12 16:40:43;;;;;;;3.40;3.10;;;31.00;54.60;;;;;;4919888;29;20473;-74
2023/09/12 16:43:50;;;;;;;3.73;3.40;;;31.10;54.90;;;;;;4919334;29;20452;-77
2023/09/12 16:46:17;;;;;;;4.10;3.70;;;31.20;54.80;;;;;;4918899;29;20480;-76
2023/09/12 16:48:44;;;;;;;3.97;3.30;;;30.90;56.50;;;;;;4918626;29;20496;-75
2023/09/12 16:51:11;;;;;;;3.43;3.10;;;30.10;59.00;;;;;;4918231;29;20478;-76